Time;durP1;ratioP1;P1;durP2;ratioP2;P2;SDS_P1;SDS_P2;PMS_P1;PMS_P2;Temp;Humidity;BMP_temperature;BMP_pressure;BME280_temperature;BME280_humidity;BME280_pressure;Samples;Min_cycle;Max_cycle;Signal;HPM_P1;HPM_P2
2021/01/05 00:00:19;;;;;;;69.20;45.28;;;8.60;97.50;;;;;;5093179;28;20036;-51
2021/01/05 00:02:45;;;;;;;71.22;47.38;;;8.60;97.40;;;;;;5093668;28;20115;-50
2021/01/05 00:05:12;;;;;;;64.53;46.13;;;8.50;97.60;;;;;;5074692;28;20455;-50
2021/01/05 00:07:37;;;;;;;69.53;42.28;;;8.60;97.30;;;;;;5093260;28;20127;-51
2021/01/05 00:10:05;;;;;;;66.03;44.63;;;8.60;97.20;;;;;;5093235;28;20115;-50
2021/01/05 00:12:30;;;;;;;62.25;40.28;;;8.50;97.30;;;;;;5074553;28;20102;-50
2021/01/05 00:14:56;;;;;;;73.82;44.15;;;8.40;97.40;;;;;;5093293;28;20036;-51
2021/01/05 00:17:22;;;;;;;68.70;40.60;;;8.40;97.40;;;;;;5093256;28;20039;-50
2021/01/05 00:19:48;;;;;;;59.92;38.30;;;8.30;97.60;;;;;;5090978;28;20483;-50
2021/01/05 00:22:16;;;;;;;67.75;39.13;;;8.30;97.80;;;;;;5093477;28;20550;-50
2021/01/05 00:24:42;;;;;;;63.92;38.30;;;8.30;97.80;;;;;;5093022;28;20032;-50
2021/01/05 00:27:08;;;;;;;58.40;36.78;;;8.30;97.70;;;;;;5091407;28;20051;-50
2021/01/05 00:29:35;;;;;;;55.40;34.60;;;8.30;97.50;;;;;;5088885;28;20093;-51
2021/01/05 00:32:24;;;;;;;63.47;37.55;;;8.30;97.50;;;;;;5084461;28;20055;-51
2021/01/05 00:34:51;;;;;;;51.22;33.67;;;8.40;97.50;;;;;;5073033;28;20038;-50
2021/01/05 00:37:18;;;;;;;56.85;35.35;;;8.30;97.40;;;;;;5072855;28;20059;-51
2021/01/05 00:39:44;;;;;;;48.50;31.60;;;8.30;97.60;;;;;;5072916;28;20072;-50
2021/01/05 00:42:11;;;;;;;53.97;33.70;;;8.20;97.50;;;;;;5073117;28;20106;-50
2021/01/05 00:44:37;;;;;;;49.17;32.10;;;8.20;97.60;;;;;;5070835;28;20040;-50
2021/01/05 00:47:03;;;;;;;48.50;29.27;;;8.20;97.60;;;;;;5072748;28;20078;-50
2021/01/05 00:49:29;;;;;;;58.25;31.83;;;8.10;97.50;;;;;;5072871;28;20043;-50
2021/01/05 00:51:58;;;;;;;52.05;31.65;;;8.10;97.60;;;;;;5072879;28;20028;-50
2021/01/05 00:54:24;;;;;;;47.60;30.38;;;8.20;97.70;;;;;;5073021;28;20037;-50
2021/01/05 00:56:58;;;;;;;53.05;33.05;;;8.10;97.80;;;;;;5072815;28;20037;-50
2021/01/05 00:59:24;;;;;;;66.32;33.72;;;8.10;97.90;;;;;;5072403;28;20050;-51
2021/01/05 01:01:50;;;;;;;52.90;27.92;;;8.10;97.80;;;;;;5072856;28;20115;-49
2021/01/05 01:04:16;;;;;;;68.70;33.45;;;8.10;97.70;;;;;;5072695;28;20033;-50
2021/01/05 01:06:41;;;;;;;67.28;33.22;;;7.90;98.10;;;;;;5073491;28;20376;-50
2021/01/05 01:09:07;;;;;;;68.60;34.45;;;7.90;98.10;;;;;;5076052;28;20103;-50
2021/01/05 01:11:33;;;;;;;64.60;34.22;;;7.90;98.30;;;;;;5076142;28;20107;-50
2021/01/05 01:13:58;;;;;;;73.95;35.63;;;8.00;98.20;;;;;;5076397;28;20041;-50
2021/01/05 01:16:24;;;;;;;56.85;29.25;;;8.00;98.20;;;;;;5076084;28;20078;-50
2021/01/05 01:18:50;;;;;;;69.20;32.63;;;8.00;98.00;;;;;;5075938;28;20464;-50
2021/01/05 01:21:16;;;;;;;65.43;31.42;;;8.00;97.80;;;;;;5075941;28;20139;-49
2021/01/05 01:23:44;;;;;;;61.67;30.20;;;8.00;97.70;;;;;;5075750;28;20495;-50
2021/01/05 01:26:10;;;;;;;46.47;24.88;;;7.90;97.80;;;;;;5075917;28;20090;-50
2021/01/05 01:28:37;;;;;;;46.60;23.67;;;7.80;98.00;;;;;;5057077;28;20415;-50
2021/01/05 01:31:03;;;;;;;41.10;22.95;;;7.70;98.10;;;;;;5080757;28;20039;-50
2021/01/05 01:33:29;;;;;;;52.08;29.05;;;7.70;98.20;;;;;;5089806;28;20032;-50
2021/01/05 01:35:54;;;;;;;48.65;26.48;;;7.70;98.40;;;;;;5075778;28;20381;-50
2021/01/05 01:38:20;;;;;;;44.35;23.90;;;7.80;98.00;;;;;;5075255;28;20036;-50
2021/01/05 01:40:46;;;;;;;48.15;24.08;;;7.80;98.20;;;;;;5075618;28;20031;-50
2021/01/05 01:43:11;;;;;;;42.97;24.45;;;7.90;97.90;;;;;;5075444;28;20040;-50
2021/01/05 01:45:37;;;;;;;47.67;25.08;;;7.90;97.70;;;;;;5075312;28;20077;-50
2021/01/05 01:48:06;;;;;;;45.30;24.05;;;7.80;98.10;;;;;;5075281;28;20032;-50
2021/01/05 01:50:36;;;;;;;45.30;25.58;;;7.80;98.00;;;;;;5075820;28;20047;-51
2021/01/05 01:53:30;;;;;;;43.22;24.95;;;7.80;98.00;;;;;;5075165;28;20036;-50
2021/01/05 01:56:55;;;;;;;53.92;27.15;;;7.90;97.80;;;;;;5075322;28;20152;-50
2021/01/05 01:59:30;;;;;;;51.20;25.60;;;7.80;98.00;;;;;;5012645;28;20104;-50
2021/01/05 02:02:20;;;;;;;50.92;25.95;;;7.80;98.10;;;;;;5013445;28;20026;-50
2021/01/05 02:05:09;;;;;;;54.25;26.50;;;7.70;98.30;;;;;;5013128;28;20045;-50
2021/01/05 02:08:04;;;;;;;49.17;24.25;;;7.80;98.30;;;;;;5012834;28;20552;-49
2021/01/05 02:10:44;;;;;;;41.67;20.30;;;7.70;98.20;;;;;;5013029;28;20038;-50
2021/01/05 02:13:24;;;;;;;50.63;22.70;;;7.60;98.20;;;;;;5013144;28;20045;-50
2021/01/05 02:16:19;;;;;;;49.20;23.33;;;7.70;98.20;;;;;;5012850;28;20498;-50
2021/01/05 02:18:52;;;;;;;48.88;22.65;;;7.50;98.50;;;;;;5011770;28;20038;-49
2021/01/05 02:21:29;;;;;;;60.55;28.45;;;7.50;98.70;;;;;;5012563;28;20062;-50
2021/01/05 02:24:13;;;;;;;66.15;30.42;;;7.50;99.00;;;;;;5012721;28;20169;-50
2021/01/05 02:26:45;;;;;;;67.95;27.58;;;7.30;99.10;;;;;;5012836;28;20034;-50
2021/01/05 02:29:19;;;;;;;74.30;30.92;;;7.50;99.10;;;;;;5019843;28;20049;-50
2021/01/05 02:32:16;;;;;;;68.60;28.63;;;7.60;98.80;;;;;;5083690;28;20036;-50
2021/01/05 02:35:03;;;;;;;67.28;26.75;;;7.70;98.50;;;;;;5080708;28;20086;-50
2021/01/05 02:37:46;;;;;;;64.63;27.98;;;7.70;98.40;;;;;;5074288;28;20532;-50
2021/01/05 02:40:27;;;;;;;60.47;28.23;;;7.70;98.50;;;;;;5074150;28;20507;-50
2021/01/05 02:42:56;;;;;;;65.93;29.17;;;7.80;98.40;;;;;;5055645;28;20048;-50
2021/01/05 02:45:32;;;;;;;72.03;31.13;;;7.80;98.20;;;;;;5073928;28;20476;-50
2021/01/05 02:48:12;;;;;;;81.20;32.83;;;7.80;98.30;;;;;;5074171;28;20043;-50
2021/01/05 02:51:15;;;;;;;52.92;25.27;;;7.80;98.50;;;;;;5055225;28;20041;-50
2021/01/05 02:54:18;;;;;;;62.60;30.45;;;7.70;98.40;;;;;;5074149;28;20066;-50
2021/01/05 02:57:03;;;;;;;50.97;29.42;;;7.80;98.20;;;;;;5074669;28;20024;-50
2021/01/05 03:00:03;;;;;;;53.50;29.02;;;7.80;97.60;;;;;;5073450;28;20404;-50
2021/01/05 03:03:25;;;;;;;59.00;32.17;;;7.70;98.00;;;;;;5074043;28;20040;-50
2021/01/05 03:06:16;;;;;;;51.63;30.65;;;7.70;97.50;;;;;;5011829;28;20485;-50
2021/01/05 03:09:20;;;;;;;52.35;32.03;;;7.90;97.40;;;;;;5011939;28;20057;-50
2021/01/05 03:11:45;;;;;;;55.15;34.30;;;7.90;97.20;;;;;;4972876;28;20084;-49
2021/01/05 03:14:47;;;;;;;46.92;29.45;;;8.00;97.20;;;;;;4972553;28;20135;-50
2021/01/05 03:17:36;;;;;;;54.50;32.53;;;8.00;97.00;;;;;;4953248;29;20412;-50
2021/01/05 03:20:20;;;;;;;50.88;31.60;;;8.00;97.00;;;;;;4952885;29;20499;-50
2021/01/05 03:22:55;;;;;;;43.40;28.15;;;8.00;96.60;;;;;;4953433;29;20571;-50
2021/01/05 03:25:23;;;;;;;48.40;29.60;;;8.10;96.70;;;;;;4953332;29;20579;-50
2021/01/05 03:27:51;;;;;;;42.42;28.63;;;8.10;96.50;;;;;;4953088;29;20051;-50
2021/01/05 03:30:27;;;;;;;46.47;30.05;;;8.00;96.60;;;;;;4953053;28;20094;-50
2021/01/05 03:32:53;;;;;;;42.80;27.98;;;8.00;96.40;;;;;;4953216;29;20434;-50
2021/01/05 03:35:19;;;;;;;44.63;30.20;;;8.00;96.40;;;;;;4952837;29;20070;-50
2021/01/05 03:37:45;;;;;;;44.80;29.05;;;7.90;96.40;;;;;;4953222;29;20476;-50
2021/01/05 03:40:11;;;;;;;45.25;31.10;;;7.90;96.40;;;;;;4999430;28;20046;-50
2021/01/05 03:42:37;;;;;;;41.38;30.15;;;7.90;96.40;;;;;;5011068;28;20042;-50
2021/01/05 03:45:05;;;;;;;41.03;29.17;;;7.90;96.40;;;;;;5011484;28;20470;-50
2021/01/05 03:47:31;;;;;;;40.40;29.30;;;7.90;96.40;;;;;;4964038;28;20049;-50
2021/01/05 03:49:56;;;;;;;42.90;30.95;;;7.80;96.50;;;;;;5030834;28;20040;-50
2021/01/05 03:52:24;;;;;;;40.60;29.40;;;7.80;96.60;;;;;;5031075;28;20033;-50
2021/01/05 03:54:51;;;;;;;37.88;25.65;;;7.80;96.60;;;;;;5065602;28;20135;-50
2021/01/05 03:57:18;;;;;;;39.85;27.88;;;7.60;96.90;;;;;;5072986;28;20035;-50
2021/01/05 03:59:43;;;;;;;43.75;30.95;;;7.50;97.20;;;;;;5073061;28;20032;-50
2021/01/05 04:02:09;;;;;;;48.10;32.40;;;7.60;97.10;;;;;;5073216;28;20055;-50
2021/01/05 04:04:35;;;;;;;44.05;30.08;;;7.70;96.90;;;;;;5078993;28;20093;-50
2021/01/05 04:07:01;;;;;;;43.65;32.95;;;7.70;96.70;;;;;;5086368;28;20472;-50
2021/01/05 04:09:27;;;;;;;46.95;30.60;;;7.60;96.90;;;;;;5073433;28;20093;-49
2021/01/05 04:11:52;;;;;;;36.40;26.77;;;7.50;96.90;;;;;;5072711;28;20047;-51
2021/01/05 04:14:18;;;;;;;39.58;29.77;;;7.40;97.00;;;;;;5073088;28;20029;-50
2021/01/05 04:16:47;;;;;;;43.58;32.03;;;7.40;97.00;;;;;;5073256;28;20036;-50
2021/01/05 04:19:14;;;;;;;42.13;30.50;;;7.50;96.70;;;;;;5072830;28;20040;-51
2021/01/05 04:21:40;;;;;;;46.13;32.15;;;7.30;97.10;;;;;;5073017;28;20123;-50
2021/01/05 04:24:06;;;;;;;43.45;33.13;;;7.40;96.70;;;;;;5073008;28;20064;-50
2021/01/05 04:26:35;;;;;;;42.42;31.42;;;7.30;96.70;;;;;;5054348;28;20047;-50
2021/01/05 04:29:01;;;;;;;38.60;28.42;;;7.30;96.70;;;;;;5054130;28;20044;-50
2021/01/05 04:31:27;;;;;;;44.05;32.03;;;7.20;96.60;;;;;;5072981;28;20082;-50
2021/01/05 04:33:53;;;;;;;46.60;33.75;;;7.40;96.50;;;;;;5072985;28;20369;-50
2021/01/05 04:36:18;;;;;;;48.17;33.30;;;7.40;96.10;;;;;;5072669;28;20025;-50
2021/01/05 04:38:44;;;;;;;49.10;34.33;;;7.40;95.90;;;;;;5072672;28;20048;-50
2021/01/05 04:41:19;;;;;;;45.30;34.00;;;7.40;95.70;;;;;;5072947;28;20032;-50
2021/01/05 04:43:56;;;;;;;45.60;32.35;;;7.40;95.70;;;;;;5076569;28;20041;-50
2021/01/05 04:46:38;;;;;;;43.95;33.40;;;7.40;95.60;;;;;;5078741;28;20037;-50
2021/01/05 04:49:51;;;;;;;45.30;31.98;;;7.40;95.50;;;;;;5057822;28;20044;-50
2021/01/05 04:52:21;;;;;;;50.13;32.92;;;7.40;95.50;;;;;;5076565;28;20035;-50
2021/01/05 04:54:53;;;;;;;47.45;33.03;;;7.30;95.50;;;;;;5076397;28;20093;-50
2021/01/05 04:57:19;;;;;;;45.90;32.60;;;7.40;95.20;;;;;;5076286;28;20032;-49
2021/01/05 05:00:20;;;;;;;47.45;34.33;;;7.40;95.00;;;;;;5057392;28;20062;-49
2021/01/05 05:03:01;;;;;;;42.95;32.22;;;7.50;94.80;;;;;;5014104;28;20043;-49
2021/01/05 05:06:06;;;;;;;47.00;32.72;;;7.50;94.60;;;;;;5029989;28;20038;-50
2021/01/05 05:08:45;;;;;;;42.15;31.20;;;7.50;94.40;;;;;;5014327;28;20042;-50
2021/01/05 05:11:16;;;;;;;43.05;30.98;;;7.50;94.50;;;;;;5016917;28;20033;-50
2021/01/05 05:14:00;;;;;;;44.92;32.72;;;7.40;94.30;;;;;;5033805;28;20444;-50
2021/01/05 05:16:46;;;;;;;44.67;32.17;;;7.40;94.40;;;;;;5014275;28;20600;-50
2021/01/05 05:19:55;;;;;;;47.90;36.28;;;7.40;94.50;;;;;;5013657;28;20077;-50
2021/01/05 05:22:37;;;;;;;44.85;32.65;;;7.30;94.50;;;;;;5013995;28;20058;-49
2021/01/05 05:25:14;;;;;;;47.88;34.60;;;7.30;94.50;;;;;;5014152;28;20030;-50
2021/01/05 05:28:04;;;;;;;47.60;32.72;;;7.20;94.70;;;;;;5013583;28;20053;-50
2021/01/05 05:30:38;;;;;;;44.55;32.88;;;7.20;94.40;;;;;;5013927;28;20033;-51
2021/01/05 05:33:28;;;;;;;46.13;33.78;;;7.30;94.40;;;;;;5014050;28;20042;-50
2021/01/05 05:36:21;;;;;;;48.88;35.03;;;7.30;94.20;;;;;;5013825;28;20456;-50
2021/01/05 05:39:01;;;;;;;47.28;33.90;;;7.20;94.30;;;;;;5043896;28;20036;-50
2021/01/05 05:42:07;;;;;;;47.20;31.90;;;7.30;94.00;;;;;;5093443;28;20612;-50
2021/01/05 05:44:44;;;;;;;43.38;30.88;;;7.30;93.90;;;;;;5093517;28;20093;-51
2021/01/05 05:47:31;;;;;;;47.05;32.15;;;7.30;93.80;;;;;;5076572;28;20381;-50
2021/01/05 05:50:22;;;;;;;43.95;32.65;;;7.30;93.70;;;;;;5093379;28;20024;-50
2021/01/05 05:52:53;;;;;;;48.60;32.75;;;7.40;93.40;;;;;;5060028;28;20066;-51
2021/01/05 05:56:07;;;;;;;45.25;31.13;;;7.40;93.40;;;;;;5057160;28;20459;-51
2021/01/05 05:58:56;;;;;;;45.03;31.27;;;7.40;93.40;;;;;;5013096;28;20108;-51
2021/01/05 06:01:42;;;;;;;42.42;30.50;;;7.40;93.20;;;;;;5013745;28;20469;-50
2021/01/05 06:04:08;;;;;;;43.40;31.63;;;7.50;93.20;;;;;;5012554;28;20025;-50
2021/01/05 06:06:37;;;;;;;45.10;30.90;;;7.30;93.30;;;;;;5013226;28;20080;-50
2021/01/05 06:09:03;;;;;;;41.47;29.40;;;7.40;93.40;;;;;;5013343;28;20044;-52
2021/01/05 06:11:33;;;;;;;42.13;30.92;;;7.40;93.30;;;;;;5013040;28;20026;-53
2021/01/05 06:14:00;;;;;;;43.03;31.63;;;7.50;93.40;;;;;;5013491;28;20030;-52
2021/01/05 06:16:29;;;;;;;41.58;30.88;;;7.50;93.30;;;;;;5013280;28;20563;-51
2021/01/05 06:18:55;;;;;;;65.72;46.45;;;7.60;93.00;;;;;;5012750;28;20137;-51
2021/01/05 06:21:21;;;;;;;51.45;36.28;;;7.70;92.80;;;;;;5027077;28;20596;-51
2021/01/05 06:23:47;;;;;;;45.17;31.05;;;7.70;92.60;;;;;;5032763;28;20029;-51
2021/01/05 06:26:16;;;;;;;40.00;28.63;;;7.70;92.50;;;;;;5015902;28;20042;-51
2021/01/05 06:28:42;;;;;;;41.65;29.05;;;7.70;92.50;;;;;;5034669;28;20037;-51
2021/01/05 06:31:08;;;;;;;39.83;28.25;;;7.70;92.40;;;;;;5052534;28;20029;-50
2021/01/05 06:33:34;;;;;;;39.20;28.27;;;7.70;92.40;;;;;;5052076;28;20036;-51
2021/01/05 06:36:00;;;;;;;44.03;31.38;;;7.70;92.30;;;;;;5059468;28;20061;-52
2021/01/05 06:38:25;;;;;;;46.65;34.05;;;7.70;92.30;;;;;;5094763;28;20024;-53
2021/01/05 06:40:51;;;;;;;42.83;30.52;;;7.70;92.30;;;;;;5062281;27;20039;-50
2021/01/05 06:43:17;;;;;;;46.72;37.60;;;7.70;92.30;;;;;;5061411;27;20479;-51
2021/01/05 06:45:43;;;;;;;44.75;30.63;;;7.60;92.50;;;;;;5113365;27;20029;-53
2021/01/05 06:48:09;;;;;;;44.42;31.00;;;7.70;92.40;;;;;;5134532;27;20038;-51
2021/01/05 06:50:34;;;;;;;40.33;28.92;;;7.70;92.40;;;;;;5134202;27;20047;-51
2021/01/05 06:53:00;;;;;;;49.30;34.72;;;7.80;92.30;;;;;;5134296;27;20083;-51
2021/01/05 06:55:26;;;;;;;48.20;34.13;;;8.10;92.60;;;;;;5134108;27;20023;-51
2021/01/05 06:57:51;;;;;;;53.08;38.78;;;8.40;91.60;;;;;;5134174;27;20098;-53
2021/01/05 07:00:26;;;;;;;52.40;38.00;;;8.70;91.00;;;;;;5133739;27;20059;-53
2021/01/05 07:02:53;;;;;;;52.97;39.33;;;8.80;90.80;;;;;;5115694;27;20070;-52
2021/01/05 07:05:19;;;;;;;58.13;41.03;;;8.60;90.60;;;;;;5113242;28;20036;-52
2021/01/05 07:07:46;;;;;;;54.47;39.17;;;8.60;91.00;;;;;;5105890;27;20418;-52
2021/01/05 07:10:13;;;;;;;53.88;38.60;;;8.60;90.60;;;;;;5093045;28;20036;-53
2021/01/05 07:12:39;;;;;;;45.47;32.65;;;8.50;91.10;;;;;;5092683;28;20106;-51
2021/01/05 07:15:10;;;;;;;45.70;32.95;;;8.20;91.60;;;;;;5092804;28;20111;-52
2021/01/05 07:17:36;;;;;;;49.38;36.15;;;8.10;92.10;;;;;;5092963;28;20357;-52
2021/01/05 07:20:04;;;;;;;49.67;34.05;;;7.90;92.40;;;;;;5096106;28;20403;-52
2021/01/05 07:22:30;;;;;;;46.53;31.58;;;8.00;92.50;;;;;;5016507;28;20049;-52
2021/01/05 07:24:55;;;;;;;44.20;32.75;;;8.00;92.40;;;;;;5049982;28;20033;-51
2021/01/05 07:27:21;;;;;;;45.03;31.30;;;8.00;92.20;;;;;;5050134;28;20052;-51
2021/01/05 07:29:47;;;;;;;50.55;33.78;;;7.90;92.50;;;;;;5050013;28;20111;-52
2021/01/05 07:32:13;;;;;;;49.70;33.30;;;7.80;93.00;;;;;;5050070;28;20047;-52
2021/01/05 07:34:38;;;;;;;48.83;32.15;;;7.80;92.70;;;;;;5050114;28;20025;-51
2021/01/05 07:37:11;;;;;;;74.45;47.28;;;7.80;93.00;;;;;;5050023;28;20029;-52
2021/01/05 07:39:37;;;;;;;51.72;33.88;;;7.70;93.00;;;;;;5049735;28;20033;-51
2021/01/05 07:42:20;;;;;;;205.23;107.60;;;7.70;93.30;;;;;;5049930;28;20200;-51
2021/01/05 07:44:50;;;;;;;78.65;52.20;;;7.60;93.70;;;;;;5016743;28;20136;-51
2021/01/05 07:47:17;;;;;;;52.42;34.63;;;7.40;94.20;;;;;;5046998;28;20037;-51
2021/01/05 07:49:44;;;;;;;53.53;35.90;;;7.60;93.90;;;;;;5049206;28;20136;-52
2021/01/05 07:52:20;;;;;;;57.45;35.47;;;7.80;93.50;;;;;;5049783;28;20044;-51
2021/01/05 07:54:46;;;;;;;64.15;40.40;;;7.90;93.10;;;;;;5076671;28;20032;-50
2021/01/05 07:57:11;;;;;;;55.90;36.97;;;7.90;93.00;;;;;;5112768;28;20024;-52
2021/01/05 07:59:39;;;;;;;55.10;38.58;;;7.90;93.10;;;;;;5112693;28;20040;-51
2021/01/05 08:02:05;;;;;;;49.47;32.45;;;7.90;93.00;;;;;;5112592;28;20024;-50
2021/01/05 08:04:31;;;;;;;59.20;41.30;;;7.80;93.00;;;;;;5112722;28;20020;-51
2021/01/05 08:06:58;;;;;;;55.83;35.33;;;7.40;93.90;;;;;;5112480;28;20383;-53
2021/01/05 08:09:24;;;;;;;54.72;37.28;;;7.60;94.10;;;;;;5112608;28;20024;-52
2021/01/05 08:11:50;;;;;;;52.58;36.80;;;7.60;94.00;;;;;;5112575;28;20031;-50
2021/01/05 08:14:16;;;;;;;49.75;35.08;;;7.70;93.50;;;;;;5112744;28;20040;-52
2021/01/05 08:16:41;;;;;;;53.53;35.88;;;7.70;93.40;;;;;;5113186;28;20035;-51
2021/01/05 08:19:07;;;;;;;51.95;35.38;;;7.70;93.40;;;;;;5116550;28;20427;-51
2021/01/05 08:21:33;;;;;;;58.88;39.47;;;7.80;93.30;;;;;;5100256;28;20044;-51
2021/01/05 08:23:59;;;;;;;43.15;31.55;;;7.80;93.40;;;;;;5096228;28;20036;-54
2021/01/05 08:26:24;;;;;;;44.17;29.08;;;7.60;92.90;;;;;;5077262;28;20115;-52
2021/01/05 08:28:50;;;;;;;42.88;30.20;;;7.50;93.30;;;;;;5096203;28;20023;-53
2021/01/05 08:31:16;;;;;;;43.47;29.50;;;7.60;93.20;;;;;;5096106;28;20483;-52
2021/01/05 08:33:42;;;;;;;43.63;30.27;;;7.80;92.60;;;;;;5096106;28;20062;-53
2021/01/05 08:36:08;;;;;;;42.35;26.85;;;7.90;92.40;;;;;;5096011;28;20031;-53
2021/01/05 08:38:34;;;;;;;45.60;29.92;;;7.80;92.50;;;;;;5095922;28;20028;-53
2021/01/05 08:41:00;;;;;;;37.83;26.10;;;7.60;93.00;;;;;;5095958;28;20073;-51
2021/01/05 08:43:26;;;;;;;39.00;26.33;;;7.60;92.70;;;;;;5096135;28;20077;-54
2021/01/05 08:45:51;;;;;;;41.38;27.58;;;7.50;93.10;;;;;;5095810;28;20025;-52
2021/01/05 08:48:17;;;;;;;42.95;26.73;;;7.50;92.70;;;;;;5076717;28;20032;-54
2021/01/05 08:50:43;;;;;;;44.33;30.00;;;7.70;92.40;;;;;;5076559;28;20427;-52
2021/01/05 08:53:11;;;;;;;39.80;26.77;;;7.60;92.70;;;;;;5095682;28;20039;-53
2021/01/05 08:55:38;;;;;;;34.85;25.75;;;7.60;92.80;;;;;;5095789;28;20433;-52
2021/01/05 08:58:05;;;;;;;38.28;28.13;;;7.80;92.40;;;;;;5095567;28;20024;-54
2021/01/05 09:00:31;;;;;;;39.50;27.98;;;7.90;92.80;;;;;;5095465;28;20047;-51
2021/01/05 09:02:56;;;;;;;45.40;32.67;;;7.70;92.40;;;;;;5095562;28;20016;-51
2021/01/05 09:05:23;;;;;;;41.50;27.17;;;7.90;93.00;;;;;;5094860;28;20099;-52
2021/01/05 09:07:49;;;;;;;44.10;31.98;;;7.80;92.40;;;;;;5093510;28;20388;-52
2021/01/05 09:10:21;;;;;;;47.33;32.83;;;7.90;92.70;;;;;;5097157;28;20406;-51
2021/01/05 09:12:46;;;;;;;44.75;33.38;;;7.90;92.60;;;;;;5095331;28;20099;-56
2021/01/05 09:15:18;;;;;;;43.15;32.72;;;8.00;92.60;;;;;;5095251;28;20562;-54
2021/01/05 09:17:45;;;;;;;52.28;32.95;;;8.10;91.90;;;;;;5095404;28;20028;-54
2021/01/05 09:20:20;;;;;;;44.97;32.05;;;8.00;92.30;;;;;;5094594;28;20044;-52
2021/01/05 09:22:46;;;;;;;47.30;33.70;;;7.80;92.90;;;;;;5094028;28;20486;-54
2021/01/05 09:25:13;;;;;;;44.15;33.15;;;7.80;93.40;;;;;;5093899;28;20020;-55
2021/01/05 09:27:39;;;;;;;55.10;40.70;;;8.00;93.00;;;;;;5093618;28;20035;-54
2021/01/05 09:30:14;;;;;;;51.95;38.33;;;8.10;92.90;;;;;;5074705;28;20036;-52
2021/01/05 09:32:40;;;;;;;46.63;36.03;;;8.50;92.50;;;;;;5091756;28;20036;-52
2021/01/05 09:35:07;;;;;;;48.00;34.67;;;8.60;91.50;;;;;;5094086;28;20020;-54
2021/01/05 09:37:33;;;;;;;65.70;47.15;;;8.50;91.10;;;;;;5074790;28;20032;-54
2021/01/05 09:39:58;;;;;;;54.63;39.20;;;8.50;91.70;;;;;;5093745;28;20112;-53
2021/01/05 09:42:27;;;;;;;52.00;37.60;;;8.30;92.00;;;;;;5093667;28;20062;-52
2021/01/05 09:44:53;;;;;;;54.08;37.17;;;8.30;91.40;;;;;;5093669;28;20031;-55
2021/01/05 09:47:23;;;;;;;52.92;36.33;;;8.00;91.80;;;;;;5093659;28;20028;-55
2021/01/05 09:49:49;;;;;;;48.30;34.25;;;7.80;92.80;;;;;;5093626;28;20458;-52
2021/01/05 09:52:16;;;;;;;56.83;40.42;;;7.30;93.20;;;;;;5091351;28;20055;-55
2021/01/05 09:54:48;;;;;;;54.25;38.53;;;7.40;94.00;;;;;;5093684;28;20035;-52
2021/01/05 09:57:13;;;;;;;;;;;7.60;92.70;;;;;;5093867;28;20032;-52
2021/01/05 09:59:39;;;;;;;48.67;31.95;;;7.90;92.40;;;;;;5091171;28;19916;-52
2021/01/05 10:02:05;;;;;;;48.50;33.63;;;7.90;92.20;;;;;;5093329;28;20495;-54
2021/01/05 10:04:31;;;;;;;44.13;33.08;;;8.10;91.70;;;;;;5093354;28;20028;-54
2021/01/05 10:06:57;;;;;;;44.35;32.90;;;8.40;91.40;;;;;;5074372;28;20400;-52
2021/01/05 10:09:22;;;;;;;48.90;34.78;;;8.50;90.70;;;;;;5093174;28;20016;-55
2021/01/05 10:11:48;;;;;;;77.35;49.03;;;8.60;90.80;;;;;;5090191;28;20475;-52
2021/01/05 10:14:17;;;;;;;55.47;37.78;;;8.60;90.60;;;;;;5087896;28;20353;-53
2021/01/05 10:16:43;;;;;;;51.60;35.63;;;8.70;90.50;;;;;;5090110;28;20031;-54
2021/01/05 10:19:13;;;;;;;60.05;41.90;;;8.70;90.60;;;;;;5056328;28;20101;-52
2021/01/05 10:21:41;;;;;;;54.33;38.17;;;8.50;91.00;;;;;;5064617;28;672023;-53
2021/01/05 10:24:08;;;;;;;58.03;39.13;;;8.50;90.70;;;;;;5083674;28;20036;-55
2021/01/05 10:26:34;;;;;;;54.75;38.75;;;8.00;91.20;;;;;;5078515;28;20024;-54
2021/01/05 10:29:01;;;;;;;64.75;42.78;;;8.00;91.80;;;;;;5092734;28;20028;-46
2021/01/05 10:31:27;;;;;;;62.60;43.85;;;8.00;92.00;;;;;;5093021;28;20028;-53
2021/01/05 10:33:52;;;;;;;146.55;88.20;;;8.20;92.00;;;;;;5093157;28;20028;-52
2021/01/05 10:36:22;;;;;;;61.05;39.95;;;8.40;91.80;;;;;;5093103;28;20387;-49
2021/01/05 10:38:48;;;;;;;56.55;39.88;;;8.60;90.70;;;;;;5093072;28;20032;-50
2021/01/05 10:41:15;;;;;;;64.22;41.65;;;8.80;90.90;;;;;;5087665;28;20044;-53
2021/01/05 10:43:42;;;;;;;54.83;37.78;;;8.70;90.60;;;;;;5091237;28;20020;-51
2021/01/05 10:46:08;;;;;;;70.03;44.10;;;8.90;90.40;;;;;;5070036;28;20043;-50
2021/01/05 10:48:34;;;;;;;77.43;48.45;;;9.10;90.40;;;;;;5070084;28;20464;-48
2021/01/05 10:51:01;;;;;;;63.00;41.92;;;9.20;89.10;;;;;;5070472;28;20040;-49
2021/01/05 10:53:28;;;;;;;63.72;41.45;;;9.30;88.80;;;;;;5070621;28;20434;-49
2021/01/05 10:55:54;;;;;;;65.00;45.97;;;9.40;88.80;;;;;;5070411;28;20076;-49
2021/01/05 10:58:20;;;;;;;75.82;53.63;;;9.00;89.40;;;;;;5070550;28;20071;-49
2021/01/05 11:00:46;;;;;;;73.47;45.92;;;8.80;90.60;;;;;;5070346;28;20041;-49
2021/01/05 11:03:11;;;;;;;76.47;49.17;;;8.80;90.70;;;;;;5070459;28;20047;-49
2021/01/05 11:05:37;;;;;;;72.03;46.30;;;8.80;90.80;;;;;;5070503;28;20049;-49
2021/01/05 11:08:03;;;;;;;63.60;43.20;;;8.80;90.80;;;;;;5070323;28;20033;-48
2021/01/05 11:10:29;;;;;;;64.97;43.17;;;8.80;90.20;;;;;;5053246;28;20041;-52
2021/01/05 11:12:57;;;;;;;68.00;46.15;;;8.80;90.00;;;;;;5053413;28;20063;-50
2021/01/05 11:15:23;;;;;;;69.38;47.00;;;8.90;90.30;;;;;;5070170;28;20063;-49
2021/01/05 11:17:49;;;;;;;66.05;46.42;;;9.10;90.10;;;;;;5088164;28;20055;-49
2021/01/05 11:20:16;;;;;;;70.95;48.15;;;8.90;89.50;;;;;;5092635;28;20056;-50
2021/01/05 11:22:42;;;;;;;66.15;45.80;;;8.90;90.80;;;;;;5092745;28;20111;-49
2021/01/05 11:25:12;;;;;;;70.10;44.35;;;8.90;90.00;;;;;;5092206;28;20055;-49
2021/01/05 11:27:38;;;;;;;74.57;48.72;;;9.00;89.60;;;;;;5092532;28;20089;-48
2021/01/05 11:30:04;;;;;;;75.25;50.92;;;8.80;90.10;;;;;;5092786;28;20387;-49
2021/01/05 11:32:30;;;;;;;71.35;48.70;;;8.70;90.30;;;;;;5073607;28;20055;-49
2021/01/05 11:34:56;;;;;;;61.22;42.65;;;9.00;90.30;;;;;;5092500;28;20066;-49
2021/01/05 11:37:22;;;;;;;64.03;43.17;;;9.20;89.50;;;;;;5092519;28;20032;-49
2021/01/05 11:39:49;;;;;;;64.00;44.13;;;9.30;89.30;;;;;;5092602;28;20081;-48
2021/01/05 11:42:19;;;;;;;56.55;42.25;;;9.50;88.00;;;;;;5092538;28;20085;-49
2021/01/05 11:44:46;;;;;;;64.53;45.58;;;9.20;88.20;;;;;;5092606;28;20039;-49
2021/01/05 11:47:13;;;;;;;64.70;46.35;;;9.30;88.90;;;;;;5092540;28;20040;-48
2021/01/05 11:49:39;;;;;;;72.90;46.53;;;9.60;89.00;;;;;;5092241;28;20093;-49
2021/01/05 11:52:05;;;;;;;67.97;46.08;;;9.70;86.00;;;;;;5092376;28;20028;-49
2021/01/05 11:54:31;;;;;;;57.58;41.40;;;9.90;86.30;;;;;;5092347;28;20071;-49
2021/01/05 11:56:58;;;;;;;75.63;47.88;;;10.10;87.10;;;;;;5092414;28;20036;-46
2021/01/05 11:59:25;;;;;;;58.47;42.78;;;10.50;86.30;;;;;;5091639;28;20036;-51
2021/01/05 12:01:51;;;;;;;69.90;46.95;;;11.00;84.50;;;;;;5091877;28;20032;-47
2021/01/05 12:04:16;;;;;;;66.70;43.03;;;11.20;82.20;;;;;;5073070;28;20047;-46
2021/01/05 12:06:50;;;;;;;66.18;42.10;;;11.50;90.80;;;;;;5092296;28;20036;-46
2021/01/05 12:09:17;;;;;;;57.33;40.55;;;11.40;93.20;;;;;;5092280;28;20110;-46
2021/01/05 12:11:44;;;;;;;82.68;56.58;;;11.30;80.00;;;;;;5090704;28;20373;-46
2021/01/05 12:14:11;;;;;;;72.35;47.97;;;11.30;79.40;;;;;;5092130;28;20434;-47
2021/01/05 12:16:38;;;;;;;69.25;44.78;;;;;;;;;;5092152;28;20036;-46
2021/01/05 12:19:08;;;;;;;59.95;38.90;;;11.50;95.20;;;;;;5092102;28;20024;-46
2021/01/05 12:21:37;;;;;;;68.10;47.85;;;11.50;98.30;;;;;;5091714;28;20078;-46
2021/01/05 12:24:04;;;;;;;65.68;44.83;;;11.30;78.70;;;;;;5087508;28;20071;-47
2021/01/05 12:26:31;;;;;;;101.88;64.68;;;10.80;83.30;;;;;;5073411;28;20051;-46
2021/01/05 12:28:59;;;;;;;63.25;45.78;;;10.00;82.30;;;;;;5092083;28;20043;-47
2021/01/05 12:31:26;;;;;;;71.22;46.35;;;10.00;84.10;;;;;;5068770;28;20040;-46
2021/01/05 12:33:52;;;;;;;71.60;51.53;;;10.00;85.40;;;;;;5069454;28;20047;-46
2021/01/05 12:36:28;;;;;;;72.93;50.20;;;10.10;85.80;;;;;;5069371;28;20044;-46
2021/01/05 12:38:55;;;;;;;66.75;45.97;;;10.20;85.30;;;;;;5069318;28;20043;-47
2021/01/05 12:41:21;;;;;;;65.25;47.67;;;10.20;85.20;;;;;;5052167;28;20032;-46
2021/01/05 12:43:47;;;;;;;70.78;49.58;;;10.20;85.00;;;;;;5035755;28;20048;-46
2021/01/05 12:46:22;;;;;;;74.97;50.92;;;9.80;86.50;;;;;;5068829;28;20047;-46
2021/01/05 12:48:48;;;;;;;71.38;49.15;;;9.90;86.40;;;;;;5069256;28;20504;-46
2021/01/05 12:51:13;;;;;;;77.25;51.78;;;9.90;86.60;;;;;;5068652;28;20041;-47
2021/01/05 12:53:40;;;;;;;70.80;48.80;;;9.70;87.30;;;;;;5020210;28;20113;-47